createdAt,value
2023-02-19T00:01:28.723Z,2.30
2023-02-19T00:03:58.488Z,2.10
2023-02-19T00:06:29.276Z,2.00
2023-02-19T00:08:59.470Z,2.00
2023-02-19T00:11:37.636Z,2.10
2023-02-19T00:14:07.197Z,2.30
2023-02-19T00:16:34.946Z,3.40
2023-02-19T00:19:05.464Z,2.70
2023-02-19T00:21:37.368Z,2.20
2023-02-19T00:24:10.306Z,2.80
2023-02-19T00:26:48.315Z,3.10
2023-02-19T00:29:24.727Z,3.10
2023-02-19T00:31:54.285Z,2.90
2023-02-19T00:34:30.412Z,3.00
2023-02-19T00:36:57.137Z,3.40
2023-02-19T00:39:31.289Z,3.10
2023-02-19T00:42:20.399Z,2.50
2023-02-19T00:44:47.157Z,2.70
2023-02-19T00:47:13.998Z,2.90
2023-02-19T00:49:43.377Z,3.50
2023-02-19T00:52:10.161Z,3.30
2023-02-19T00:54:36.911Z,2.80
2023-02-19T00:57:12.704Z,5.20
2023-02-19T00:59:48.383Z,4.40
2023-02-19T01:02:18.568Z,4.90
2023-02-19T01:04:56.110Z,4.30
2023-02-19T01:07:43.113Z,3.60
2023-02-19T01:10:12.433Z,2.90
2023-02-19T01:12:49.394Z,3.20
2023-02-19T01:15:16.100Z,2.80
2023-02-19T01:17:53.921Z,3.40
2023-02-19T01:20:23.846Z,2.90
2023-02-19T01:23:00.725Z,2.90
2023-02-19T01:25:27.519Z,2.90
2023-02-19T01:27:54.208Z,3.00
2023-02-19T01:30:25.558Z,3.10
2023-02-19T01:32:55.258Z,3.10
2023-02-19T01:35:22.411Z,3.00
2023-02-19T01:37:52.249Z,4.80
2023-02-19T01:40:31.561Z,3.90
2023-02-19T01:42:58.512Z,3.50
2023-02-19T01:45:32.473Z,3.30
2023-02-19T01:47:59.145Z,2.90
2023-02-19T01:50:32.071Z,3.30
2023-02-19T01:52:59.195Z,3.40
2023-02-19T01:55:28.594Z,3.20
2023-02-19T01:57:55.847Z,3.50
2023-02-19T02:00:25.665Z,4.00
2023-02-19T02:02:54.551Z,3.60
2023-02-19T02:05:41.471Z,4.10
2023-02-19T02:08:26.578Z,3.80
2023-02-19T02:10:57.651Z,3.80
2023-02-19T02:13:24.568Z,3.40
2023-02-19T02:15:57.993Z,3.40
2023-02-19T02:18:48.212Z,2.80
2023-02-19T02:21:53.604Z,3.60
2023-02-19T02:24:23.808Z,3.00
2023-02-19T02:27:11.671Z,3.30
2023-02-19T02:30:25.977Z,3.30
2023-02-19T02:33:31.507Z,2.70
2023-02-19T02:36:07.097Z,3.20
2023-02-19T02:38:38.389Z,3.20
2023-02-19T02:41:05.465Z,3.30
2023-02-19T02:43:44.440Z,2.70
2023-02-19T02:46:12.502Z,3.40
2023-02-19T02:48:56.667Z,2.80
2023-02-19T02:51:31.457Z,3.20
2023-02-19T02:54:30.146Z,4.30
2023-02-19T02:56:58.398Z,5.40
2023-02-19T02:59:48.434Z,6.70
2023-02-19T03:02:22.051Z,6.00
2023-02-19T03:05:07.414Z,5.70
2023-02-19T03:10:59.175Z,5.20
2023-02-19T03:13:50.107Z,4.40
2023-02-19T03:16:45.144Z,4.20
2023-02-19T03:19:21.911Z,5.00
2023-02-19T03:22:12.954Z,4.30
2023-02-19T03:25:31.040Z,4.40
2023-02-19T03:28:05.170Z,4.30
2023-02-19T03:30:43.553Z,4.50
2023-02-19T03:33:15.001Z,4.00
2023-02-19T03:35:49.879Z,3.90
2023-02-19T03:38:21.592Z,4.10
2023-02-19T03:40:57.887Z,4.00
2023-02-19T03:43:54.004Z,4.40
2023-02-19T03:46:26.895Z,3.70
2023-02-19T03:49:14.122Z,4.80
2023-02-19T03:52:01.098Z,5.10
2023-02-19T03:54:53.276Z,4.70
2023-02-19T03:57:45.444Z,14.40
2023-02-19T04:00:13.789Z,5.70
2023-02-19T04:02:58.511Z,5.40
2023-02-19T04:05:28.157Z,6.00
2023-02-19T04:07:59.440Z,6.20
2023-02-19T04:10:32.314Z,7.50
2023-02-19T04:13:22.065Z,6.60
2023-02-19T04:15:51.325Z,6.80
2023-02-19T04:18:26.126Z,7.50
2023-02-19T04:20:54.235Z,7.30
2023-02-19T04:23:24.077Z,8.00
2023-02-19T04:25:55.121Z,8.30
2023-02-19T04:28:23.216Z,8.20
2023-02-19T04:30:51.468Z,8.50
2023-02-19T04:33:22.447Z,44.30
2023-02-19T04:35:59.404Z,18.40
2023-02-19T04:38:27.470Z,10.20
2023-02-19T04:40:55.556Z,9.10
2023-02-19T04:43:23.872Z,9.40
2023-02-19T04:46:19.971Z,6.70
2023-02-19T04:48:58.269Z,8.10
2023-02-19T04:51:26.374Z,8.90
2023-02-19T04:53:56.492Z,7.80
2023-02-19T04:56:24.828Z,7.80
2023-02-19T04:58:55.892Z,6.90
2023-02-19T05:01:24.978Z,6.90
2023-02-19T05:04:05.001Z,7.70
2023-02-19T05:07:04.725Z,6.20
2023-02-19T05:09:45.731Z,5.40
2023-02-19T05:12:17.234Z,6.70
2023-02-19T05:14:49.094Z,6.50
2023-02-19T05:17:27.419Z,5.30
2023-02-19T05:19:58.172Z,7.60
2023-02-19T05:22:26.129Z,5.10
2023-02-19T05:24:56.434Z,4.70
2023-02-19T05:27:27.095Z,4.30
2023-02-19T05:29:57.451Z,4.20
2023-02-19T05:32:25.447Z,4.90
2023-02-19T05:34:53.707Z,4.20
2023-02-19T05:37:21.699Z,3.40
2023-02-19T05:39:49.937Z,4.50
2023-02-19T05:42:18.191Z,5.10
2023-02-19T05:44:46.251Z,4.60
2023-02-19T05:47:14.312Z,4.90
2023-02-19T05:49:47.564Z,4.00
2023-02-19T05:52:15.675Z,5.00
2023-02-19T05:54:43.540Z,5.10
2023-02-19T05:57:11.712Z,5.30
2023-02-19T05:59:39.678Z,6.70
2023-02-19T06:02:10.125Z,7.80
2023-02-19T06:04:40.943Z,7.40
2023-02-19T06:07:09.536Z,7.90
2023-02-19T06:09:37.511Z,13.10
2023-02-19T06:12:05.389Z,6.60
2023-02-19T06:14:33.377Z,5.80
2023-02-19T06:17:01.306Z,5.30
2023-02-19T06:19:29.375Z,4.80
2023-02-19T06:21:57.322Z,4.00
2023-02-19T06:24:25.507Z,7.10
2023-02-19T06:26:53.397Z,6.80
2023-02-19T06:29:21.640Z,4.70
2023-02-19T06:31:49.782Z,4.00
2023-02-19T06:34:18.000Z,4.90
2023-02-19T06:36:53.450Z,4.40
2023-02-19T06:39:31.588Z,6.60
2023-02-19T06:42:01.993Z,2.60
2023-02-19T06:44:30.006Z,3.90
2023-02-19T06:46:58.135Z,4.00
2023-02-19T06:49:26.260Z,2.90
2023-02-19T06:51:54.363Z,2.60
2023-02-19T06:54:27.651Z,4.30
2023-02-19T06:56:57.282Z,4.30
2023-02-19T06:59:25.697Z,3.20
2023-02-19T07:01:53.793Z,3.80
2023-02-19T07:04:21.696Z,4.00
2023-02-19T07:06:49.778Z,4.10
2023-02-19T07:09:20.176Z,3.70
2023-02-19T07:11:48.225Z,3.40
2023-02-19T07:14:16.964Z,4.30
2023-02-19T07:16:47.546Z,3.90
2023-02-19T07:19:16.165Z,4.20
2023-02-19T07:21:44.649Z,8.40
2023-02-19T07:24:12.966Z,4.50
2023-02-19T07:26:41.161Z,4.10
2023-02-19T07:29:09.869Z,4.60
2023-02-19T07:31:50.372Z,4.00
2023-02-19T07:34:28.482Z,3.80
2023-02-19T07:36:59.496Z,4.20
2023-02-19T07:39:27.498Z,4.60
2023-02-19T07:41:58.226Z,4.00
2023-02-19T07:44:29.373Z,3.40
2023-02-19T07:46:57.431Z,3.40
2023-02-19T07:49:28.853Z,3.70
2023-02-19T07:52:01.764Z,2.40
2023-02-19T07:54:29.959Z,3.20
2023-02-19T07:56:58.101Z,3.40
2023-02-19T07:59:26.321Z,3.40
2023-02-19T08:02:13.284Z,3.20
2023-02-19T08:04:41.421Z,2.50
2023-02-19T08:07:09.538Z,1.80
2023-02-19T08:09:42.663Z,2.10
2023-02-19T08:12:30.688Z,2.40
2023-02-19T08:14:58.636Z,2.10
2023-02-19T08:17:35.475Z,2.60
2023-02-19T08:20:03.480Z,2.00
2023-02-19T08:22:31.343Z,2.50
2023-02-19T08:24:59.535Z,1.90
2023-02-19T08:27:27.795Z,2.00
2023-02-19T08:29:58.554Z,1.50
2023-02-19T08:32:26.705Z,1.40
2023-02-19T08:34:57.534Z,1.60
2023-02-19T08:37:25.513Z,2.00
2023-02-19T08:39:53.801Z,1.60
2023-02-19T08:42:21.655Z,1.40
2023-02-19T08:44:49.628Z,1.50
2023-02-19T08:47:17.773Z,2.20
2023-02-19T08:49:45.782Z,2.40
2023-02-19T08:52:13.731Z,2.10
2023-02-19T08:54:41.803Z,1.70
2023-02-19T08:57:20.231Z,1.80
2023-02-19T08:59:51.419Z,1.30
2023-02-19T09:04:47.350Z,2.20
2023-02-19T09:07:35.767Z,1.90
2023-02-19T09:10:07.707Z,2.00
2023-02-19T09:12:38.444Z,1.50
2023-02-19T09:15:06.884Z,1.20
2023-02-19T09:17:34.836Z,2.10
2023-02-19T09:20:04.089Z,1.60
2023-02-19T09:22:32.246Z,1.60
2023-02-19T09:25:00.358Z,1.50
2023-02-19T09:27:28.581Z,1.40
2023-02-19T09:29:59.967Z,1.40
2023-02-19T09:32:30.381Z,2.10
2023-02-19T09:34:58.341Z,2.00
2023-02-19T09:37:27.723Z,1.40
2023-02-19T09:39:55.891Z,1.40
2023-02-19T09:42:24.899Z,1.90
2023-02-19T09:44:55.560Z,1.60
2023-02-19T09:47:25.456Z,1.70
2023-02-19T09:49:56.226Z,1.40
2023-02-19T09:52:28.588Z,1.30
2023-02-19T09:54:59.646Z,1.30
2023-02-19T09:57:29.872Z,1.70
2023-02-19T10:00:02.063Z,1.90
2023-02-19T10:02:32.785Z,2.10
2023-02-19T10:05:02.735Z,2.00
2023-02-19T10:07:42.049Z,6.20
2023-02-19T10:10:13.021Z,3.70
2023-02-19T10:12:45.941Z,10.00
2023-02-19T10:15:39.133Z,9.90
2023-02-19T10:18:09.479Z,2.90
2023-02-19T10:20:39.941Z,8.80
2023-02-19T10:23:09.029Z,6.60
2023-02-19T10:25:39.555Z,13.00
2023-02-19T10:28:12.875Z,14.50
2023-02-19T10:30:41.479Z,12.20
2023-02-19T10:33:11.038Z,2.00
2023-02-19T10:35:52.407Z,2.30
2023-02-19T10:38:21.539Z,5.30
2023-02-19T10:40:51.223Z,2.80
2023-02-19T10:43:22.586Z,6.30
2023-02-19T10:45:53.576Z,2.40
2023-02-19T10:48:25.671Z,4.50
2023-02-19T10:50:58.134Z,4.20
2023-02-19T10:53:55.414Z,2.30
2023-02-19T10:56:27.612Z,4.20
2023-02-19T10:58:55.924Z,3.10
2023-02-19T11:01:25.837Z,2.60
2023-02-19T11:04:13.839Z,2.40
2023-02-19T11:06:44.576Z,2.00
2023-02-19T11:09:27.115Z,3.10
2023-02-19T11:11:56.187Z,2.70
2023-02-19T11:14:24.975Z,1.60
2023-02-19T11:16:57.421Z,2.20
2023-02-19T11:19:28.477Z,2.10
2023-02-19T11:21:56.950Z,2.20
2023-02-19T11:24:34.048Z,1.70
2023-02-19T11:27:04.288Z,2.50
2023-02-19T11:29:36.229Z,4.20
2023-02-19T11:32:22.084Z,5.30
2023-02-19T11:34:50.055Z,3.10
2023-02-19T11:37:21.742Z,2.40
2023-02-19T11:39:50.892Z,2.10
2023-02-19T11:42:18.811Z,1.90
2023-02-19T11:45:05.555Z,2.20
2023-02-19T11:47:52.089Z,1.90
2023-02-19T11:50:23.171Z,2.10
2023-02-19T11:52:57.369Z,2.80
2023-02-19T11:55:34.546Z,2.10
2023-02-19T11:58:25.864Z,1.70
2023-02-19T12:01:14.085Z,1.70
2023-02-19T12:03:57.509Z,2.10
2023-02-19T12:06:38.404Z,2.00
2023-02-19T12:09:22.904Z,1.90
2023-02-19T12:12:10.093Z,1.50
2023-02-19T12:14:48.258Z,0.90
2023-02-19T12:17:38.938Z,1.60
2023-02-19T12:20:27.115Z,2.00
2023-02-19T12:23:11.460Z,3.20
2023-02-19T12:25:42.464Z,1.20
2023-02-19T12:28:29.334Z,5.30
2023-02-19T12:31:06.619Z,19.20
2023-02-19T12:33:50.267Z,6.60
2023-02-19T12:36:37.001Z,9.60
2023-02-19T12:39:05.248Z,8.30
2023-02-19T12:41:36.646Z,65.30
2023-02-19T12:44:17.337Z,14.00
2023-02-19T12:46:49.138Z,7.20
2023-02-19T12:49:17.004Z,18.30
2023-02-19T12:51:57.559Z,11.80
2023-02-19T12:54:32.110Z,37.50
2023-02-19T12:57:09.288Z,16.10
2023-02-19T12:59:59.762Z,14.50
2023-02-19T13:02:51.162Z,20.50
2023-02-19T13:05:21.428Z,16.90
2023-02-19T13:08:13.590Z,7.50
2023-02-19T13:10:44.816Z,9.60
2023-02-19T13:13:30.485Z,33.40
2023-02-19T13:16:04.196Z,3.20
2023-02-19T13:18:35.720Z,8.00
2023-02-19T13:21:25.043Z,8.10
2023-02-19T13:23:59.010Z,7.70
2023-02-19T13:26:39.266Z,6.20
2023-02-19T13:29:10.374Z,6.80
2023-02-19T13:31:38.285Z,10.60
2023-02-19T13:34:17.573Z,4.50
2023-02-19T13:36:45.972Z,1.90
2023-02-19T13:41:49.964Z,5.60
2023-02-19T13:44:22.769Z,5.50
2023-02-19T13:46:50.956Z,8.60
2023-02-19T13:49:26.016Z,3.70
2023-02-19T13:51:58.153Z,3.40
2023-02-19T13:54:26.647Z,4.90
2023-02-19T13:57:14.485Z,2.90
2023-02-19T13:59:42.621Z,6.60
2023-02-19T14:02:22.962Z,6.10
2023-02-19T14:04:55.640Z,4.80
2023-02-19T14:10:42.527Z,4.20
2023-02-19T14:13:10.625Z,7.60
2023-02-19T14:15:44.439Z,5.00
2023-02-19T14:18:32.874Z,12.60
2023-02-19T14:21:07.610Z,6.50
2023-02-19T14:23:35.960Z,12.20
2023-02-19T14:26:07.556Z,3.70
2023-02-19T14:28:38.043Z,17.00
2023-02-19T14:31:18.328Z,3.60
2023-02-19T14:33:50.529Z,6.20
2023-02-19T14:36:28.061Z,18.20
2023-02-19T14:39:04.020Z,12.30
2023-02-19T14:41:33.594Z,13.30
2023-02-19T14:44:05.281Z,10.20
2023-02-19T14:46:45.440Z,10.40
2023-02-19T14:49:30.313Z,12.70
2023-02-19T14:52:03.388Z,4.20
2023-02-19T14:54:40.675Z,16.00
2023-02-19T14:57:15.728Z,10.20
2023-02-19T14:59:58.777Z,26.60
2023-02-19T15:02:30.082Z,38.20
2023-02-19T15:04:58.788Z,8.50
2023-02-19T15:07:31.853Z,27.50
2023-02-19T15:10:05.824Z,55.30
2023-02-19T15:12:39.240Z,106.00
2023-02-19T15:15:07.528Z,60.20
2023-02-19T15:17:37.041Z,12.80
2023-02-19T15:20:11.569Z,24.10
2023-02-19T15:22:41.591Z,36.40
2023-02-19T15:25:15.890Z,13.20
2023-02-19T15:28:15.896Z,10.50
2023-02-19T15:30:44.646Z,19.90
2023-02-19T15:33:18.507Z,17.70
2023-02-19T15:35:51.245Z,19.90
2023-02-19T15:38:22.910Z,20.80
2023-02-19T15:40:51.446Z,14.10
2023-02-19T15:43:30.508Z,17.40
2023-02-19T15:46:11.275Z,9.30
2023-02-19T15:48:47.508Z,6.20
2023-02-19T15:51:19.077Z,11.80
2023-02-19T15:53:54.319Z,13.00
2023-02-19T15:56:28.345Z,41.70
2023-02-19T15:59:05.953Z,5.00
2023-02-19T16:01:37.576Z,5.70
2023-02-19T16:04:13.348Z,17.50
2023-02-19T16:07:03.805Z,9.40
2023-02-19T16:09:39.687Z,4.80
2023-02-19T16:12:21.471Z,7.60
2023-02-19T16:14:51.335Z,6.70
2023-02-19T16:17:23.169Z,6.60
2023-02-19T16:20:06.544Z,8.20
2023-02-19T16:22:40.596Z,3.10
2023-02-19T16:25:23.591Z,18.80
2023-02-19T16:27:54.527Z,4.80
2023-02-19T16:30:31.647Z,6.80
2023-02-19T16:33:22.641Z,6.20
2023-02-19T16:35:53.103Z,7.70
2023-02-19T16:38:24.914Z,5.80
2023-02-19T16:40:54.359Z,6.90
2023-02-19T16:43:27.237Z,8.40
2023-02-19T16:45:55.354Z,11.50
2023-02-19T16:48:26.902Z,27.30
2023-02-19T16:50:59.792Z,9.60
2023-02-19T16:53:30.542Z,6.10
2023-02-19T16:55:59.957Z,7.60
2023-02-19T16:58:27.983Z,11.50
2023-02-19T17:00:56.283Z,4.50
2023-02-19T17:03:30.401Z,6.30
2023-02-19T17:05:58.674Z,15.70
2023-02-19T17:08:49.154Z,6.20
2023-02-19T17:11:20.621Z,5.90
2023-02-19T17:13:48.624Z,5.90
2023-02-19T17:16:21.323Z,6.40
2023-02-19T17:18:55.397Z,4.80
2023-02-19T17:21:28.170Z,8.80
2023-02-19T17:24:01.490Z,5.10
2023-02-19T17:27:01.854Z,4.20
2023-02-19T17:29:34.098Z,7.40
2023-02-19T17:32:24.978Z,13.10
2023-02-19T17:34:55.320Z,24.20
2023-02-19T17:37:23.446Z,36.50
2023-02-19T17:39:51.430Z,71.20
2023-02-19T17:42:20.303Z,35.30
2023-02-19T17:44:48.316Z,20.30
2023-02-19T17:47:16.536Z,11.70
2023-02-19T17:49:46.756Z,7.40
2023-02-19T17:52:17.801Z,5.90
2023-02-19T17:54:55.075Z,9.20
2023-02-19T17:57:23.505Z,6.30
2023-02-19T17:59:51.659Z,6.50
2023-02-19T18:02:19.699Z,7.30
2023-02-19T18:04:47.813Z,17.20
2023-02-19T18:07:16.378Z,6.40
2023-02-19T18:09:44.592Z,7.10
2023-02-19T18:12:15.614Z,9.60
2023-02-19T18:14:45.306Z,4.00
2023-02-19T18:17:20.804Z,12.50
2023-02-19T18:19:51.467Z,6.40
2023-02-19T18:22:19.826Z,7.90
2023-02-19T18:25:08.118Z,11.80
2023-02-19T18:27:36.520Z,5.60
2023-02-19T18:30:05.437Z,3.70
2023-02-19T18:32:36.208Z,5.80
2023-02-19T18:35:04.826Z,5.30
2023-02-19T18:37:35.658Z,4.70
2023-02-19T18:40:04.337Z,5.50
2023-02-19T18:45:03.275Z,7.70
2023-02-19T18:47:31.427Z,8.80
2023-02-19T18:50:01.966Z,28.10
2023-02-19T18:52:30.226Z,13.70
2023-02-19T18:54:58.399Z,9.90
2023-02-19T18:57:29.462Z,12.00
2023-02-19T18:59:57.629Z,10.80
2023-02-19T19:02:36.385Z,7.40
2023-02-19T19:05:13.933Z,7.60
2023-02-19T19:07:41.976Z,10.70
2023-02-19T19:10:15.399Z,10.00
2023-02-19T19:12:43.422Z,7.50
2023-02-19T19:15:19.174Z,8.80
2023-02-19T19:17:49.898Z,5.20
2023-02-19T19:20:21.701Z,10.50
2023-02-19T19:22:52.778Z,6.20
2023-02-19T19:25:24.040Z,4.00
2023-02-19T19:27:55.161Z,3.90
2023-02-19T19:30:25.503Z,3.50
2023-02-19T19:33:03.661Z,3.30
2023-02-19T19:35:41.684Z,3.50
2023-02-19T19:38:10.062Z,2.30
2023-02-19T19:40:42.395Z,2.60
2023-02-19T19:43:13.115Z,2.50
2023-02-19T19:45:41.076Z,2.60
2023-02-19T19:48:11.845Z,3.70
2023-02-19T19:53:10.780Z,2.90
2023-02-19T19:55:41.920Z,3.70
2023-02-19T19:58:10.011Z,4.40
2023-02-19T20:00:38.110Z,2.80
2023-02-19T20:03:07.113Z,3.20
2023-02-19T20:05:35.542Z,5.40
2023-02-19T20:08:07.005Z,3.60
2023-02-19T20:10:37.470Z,2.60
2023-02-19T20:13:05.990Z,3.50
2023-02-19T20:15:36.678Z,3.60
2023-02-19T20:18:07.111Z,3.10
2023-02-19T20:20:35.278Z,2.70
2023-02-19T20:23:03.940Z,2.60
2023-02-19T20:25:32.357Z,3.40
2023-02-19T20:28:05.588Z,3.40
2023-02-19T20:30:37.349Z,4.20
2023-02-19T20:33:05.845Z,3.90
2023-02-19T20:35:34.065Z,6.00
2023-02-19T20:38:02.321Z,6.70
2023-02-19T20:40:39.403Z,6.60
2023-02-19T20:43:10.747Z,6.30
2023-02-19T20:48:09.460Z,4.20
2023-02-19T20:50:40.036Z,3.30
2023-02-19T20:53:08.327Z,5.40
2023-02-19T20:55:37.164Z,4.90
2023-02-19T20:58:05.458Z,3.80
2023-02-19T21:00:33.688Z,4.00
2023-02-19T21:03:12.195Z,3.30
2023-02-19T21:05:40.764Z,4.80
2023-02-19T21:08:10.481Z,3.20
2023-02-19T21:10:39.044Z,4.20
2023-02-19T21:13:10.606Z,3.60
2023-02-19T21:15:38.875Z,3.10
2023-02-19T21:18:20.063Z,3.90
2023-02-19T21:21:19.043Z,3.50
2023-02-19T21:23:50.626Z,3.60
2023-02-19T21:26:19.325Z,3.70
2023-02-19T21:28:47.408Z,3.70
2023-02-19T21:31:15.696Z,2.70
2023-02-19T21:33:48.858Z,3.40
2023-02-19T21:38:44.916Z,3.00
2023-02-19T21:41:18.475Z,3.30
2023-02-19T21:43:46.533Z,3.00
2023-02-19T21:46:20.514Z,2.60
2023-02-19T21:48:49.184Z,3.20
2023-02-19T21:51:18.354Z,3.40
2023-02-19T21:53:49.175Z,2.90
2023-02-19T21:56:24.112Z,2.90
2023-02-19T21:58:52.155Z,2.40
2023-02-19T22:01:24.457Z,3.80
2023-02-19T22:03:53.044Z,2.50
2023-02-19T22:06:23.660Z,2.20
2023-02-19T22:08:51.744Z,2.40
2023-02-19T22:11:27.607Z,2.70
2023-02-19T22:13:55.958Z,2.90
2023-02-19T22:18:56.732Z,2.70
2023-02-19T22:21:26.323Z,2.50
2023-02-19T22:23:55.221Z,3.00
2023-02-19T22:26:26.310Z,2.90
2023-02-19T22:31:26.558Z,2.60
2023-02-19T22:33:57.682Z,3.00
2023-02-19T22:36:28.077Z,3.30
2023-02-19T22:38:56.066Z,2.40
2023-02-19T22:41:26.671Z,2.70
2023-02-19T22:43:55.593Z,2.40
2023-02-19T22:46:28.724Z,2.60
2023-02-19T22:48:57.436Z,3.10
2023-02-19T22:51:25.521Z,2.90
2023-02-19T22:53:54.801Z,3.00
2023-02-19T22:56:24.214Z,2.60
2023-02-19T22:58:56.472Z,2.00
2023-02-19T23:01:24.883Z,2.50
2023-02-19T23:03:55.217Z,2.50
2023-02-19T23:06:24.992Z,2.50
2023-02-19T23:08:54.029Z,2.10
2023-02-19T23:11:25.353Z,1.80
2023-02-19T23:13:57.344Z,1.80
2023-02-19T23:16:35.895Z,1.90
2023-02-19T23:19:09.491Z,2.20
2023-02-19T23:21:40.109Z,2.40
2023-02-19T23:24:11.662Z,3.30
2023-02-19T23:26:43.979Z,3.40
2023-02-19T23:29:16.621Z,3.00
2023-02-19T23:31:44.933Z,3.20
2023-02-19T23:34:16.418Z,4.40
2023-02-19T23:36:45.759Z,4.00
2023-02-19T23:39:15.390Z,3.90
2023-02-19T23:41:56.632Z,3.60
2023-02-19T23:44:25.145Z,3.30
2023-02-19T23:46:55.503Z,2.70
2023-02-19T23:49:24.181Z,2.50
2023-02-19T23:51:54.699Z,3.20
2023-02-19T23:54:22.769Z,2.70
2023-02-19T23:56:53.809Z,3.00
2023-02-19T23:59:21.900Z,2.70
